sensor_id;sensor_type;location;lat;lon;timestamp;temperature;humidity
5086;DHT22;4715;51.660;7.082;2023-04-25T00:00:33;6.90;99.90
5086;DHT22;4715;51.660;7.082;2023-04-25T00:02:55;6.90;99.90
5086;DHT22;4715;51.660;7.082;2023-04-25T00:05:18;6.90;99.90
5086;DHT22;4715;51.660;7.082;2023-04-25T00:07:40;6.90;99.90
5086;DHT22;4715;51.660;7.082;2023-04-25T00:10:05;6.90;99.90
5086;DHT22;4715;51.660;7.082;2023-04-25T00:12:27;6.90;99.90
5086;DHT22;4715;51.660;7.082;2023-04-25T00:14:50;6.90;99.90
5086;DHT22;4715;51.660;7.082;2023-04-25T00:17:11;6.90;99.90
5086;DHT22;4715;51.660;7.082;2023-04-25T00:19:33;6.90;99.90
5086;DHT22;4715;51.660;7.082;2023-04-25T00:21:55;6.90;99.90
5086;DHT22;4715;51.660;7.082;2023-04-25T00:24:17;6.90;99.90
5086;DHT22;4715;51.660;7.082;2023-04-25T00:26:40;6.90;99.90
5086;DHT22;4715;51.660;7.082;2023-04-25T00:29:02;6.90;99.90
5086;DHT22;4715;51.660;7.082;2023-04-25T00:31:24;6.90;99.90
5086;DHT22;4715;51.660;7.082;2023-04-25T00:33:45;6.90;99.90
5086;DHT22;4715;51.660;7.082;2023-04-25T00:36:08;7.00;99.90
5086;DHT22;4715;51.660;7.082;2023-04-25T00:38:30;6.90;99.90
5086;DHT22;4715;51.660;7.082;2023-04-25T00:40:52;6.90;99.90
5086;DHT22;4715;51.660;7.082;2023-04-25T00:43:17;6.90;99.90
5086;DHT22;4715;51.660;7.082;2023-04-25T00:45:39;7.00;99.90
5086;DHT22;4715;51.660;7.082;2023-04-25T00:48:02;7.00;99.90
5086;DHT22;4715;51.660;7.082;2023-04-25T00:50:25;7.00;99.90
5086;DHT22;4715;51.660;7.082;2023-04-25T00:52:47;6.90;99.90
5086;DHT22;4715;51.660;7.082;2023-04-25T00:55:10;6.90;99.90
5086;DHT22;4715;51.660;7.082;2023-04-25T00:57:32;6.90;99.90
5086;DHT22;4715;51.660;7.082;2023-04-25T00:59:56;7.00;99.90
5086;DHT22;4715;51.660;7.082;2023-04-25T01:02:20;7.00;99.90
5086;DHT22;4715;51.660;7.082;2023-04-25T01:04:43;7.00;99.90
5086;DHT22;4715;51.660;7.082;2023-04-25T01:07:07;7.00;99.90
5086;DHT22;4715;51.660;7.082;2023-04-25T01:09:30;7.10;99.90
5086;DHT22;4715;51.660;7.082;2023-04-25T01:11:52;7.10;99.90
5086;DHT22;4715;51.660;7.082;2023-04-25T01:14:14;7.10;99.90
5086;DHT22;4715;51.660;7.082;2023-04-25T01:16:38;7.10;99.90
5086;DHT22;4715;51.660;7.082;2023-04-25T01:19:00;7.10;99.90
5086;DHT22;4715;51.660;7.082;2023-04-25T01:21:25;7.10;99.90
5086;DHT22;4715;51.660;7.082;2023-04-25T01:23:50;7.20;99.90
5086;DHT22;4715;51.660;7.082;2023-04-25T01:26:12;7.20;99.90
5086;DHT22;4715;51.660;7.082;2023-04-25T01:28:36;7.20;99.90
5086;DHT22;4715;51.660;7.082;2023-04-25T01:30:59;7.20;99.90
5086;DHT22;4715;51.660;7.082;2023-04-25T01:33:23;7.20;99.90
5086;DHT22;4715;51.660;7.082;2023-04-25T01:35:45;7.20;99.90
5086;DHT22;4715;51.660;7.082;2023-04-25T01:38:09;7.20;99.90
5086;DHT22;4715;51.660;7.082;2023-04-25T01:40:37;7.20;99.90
5086;DHT22;4715;51.660;7.082;2023-04-25T01:43:00;7.20;99.90
5086;DHT22;4715;51.660;7.082;2023-04-25T01:45:22;7.20;99.90
5086;DHT22;4715;51.660;7.082;2023-04-25T01:47:47;7.20;99.90
5086;DHT22;4715;51.660;7.082;2023-04-25T01:50:12;7.10;99.90
5086;DHT22;4715;51.660;7.082;2023-04-25T01:52:38;7.10;99.90
5086;DHT22;4715;51.660;7.082;2023-04-25T01:55:02;7.10;99.90
5086;DHT22;4715;51.660;7.082;2023-04-25T01:57:25;7.00;99.90
5086;DHT22;4715;51.660;7.082;2023-04-25T01:59:47;7.00;99.90
5086;DHT22;4715;51.660;7.082;2023-04-25T02:02:10;7.00;99.90
5086;DHT22;4715;51.660;7.082;2023-04-25T02:04:34;7.00;99.90
5086;DHT22;4715;51.660;7.082;2023-04-25T02:06:57;6.90;99.90
5086;DHT22;4715;51.660;7.082;2023-04-25T02:09:20;6.90;99.90
5086;DHT22;4715;51.660;7.082;2023-04-25T02:11:44;6.80;99.90
5086;DHT22;4715;51.660;7.082;2023-04-25T02:14:06;6.80;99.90
5086;DHT22;4715;51.660;7.082;2023-04-25T02:16:29;6.80;99.90
5086;DHT22;4715;51.660;7.082;2023-04-25T02:18:52;6.80;99.90
5086;DHT22;4715;51.660;7.082;2023-04-25T02:21:16;6.80;99.90
5086;DHT22;4715;51.660;7.082;2023-04-25T02:23:38;6.80;99.90
5086;DHT22;4715;51.660;7.082;2023-04-25T02:26:01;6.80;99.90
5086;DHT22;4715;51.660;7.082;2023-04-25T02:28:25;6.80;99.90
5086;DHT22;4715;51.660;7.082;2023-04-25T02:30:47;6.80;99.90
5086;DHT22;4715;51.660;7.082;2023-04-25T02:33:09;6.80;99.90
5086;DHT22;4715;51.660;7.082;2023-04-25T02:35:32;6.80;99.90
5086;DHT22;4715;51.660;7.082;2023-04-25T02:37:56;6.80;99.90
5086;DHT22;4715;51.660;7.082;2023-04-25T02:40:19;6.80;99.90
5086;DHT22;4715;51.660;7.082;2023-04-25T02:42:42;6.80;99.90
5086;DHT22;4715;51.660;7.082;2023-04-25T02:45:09;6.80;99.90
5086;DHT22;4715;51.660;7.082;2023-04-25T02:47:32;6.90;99.90
5086;DHT22;4715;51.660;7.082;2023-04-25T02:49:53;6.80;99.90
5086;DHT22;4715;51.660;7.082;2023-04-25T02:52:16;6.80;99.90
5086;DHT22;4715;51.660;7.082;2023-04-25T02:54:38;6.80;99.90
5086;DHT22;4715;51.660;7.082;2023-04-25T02:57:02;6.80;99.90
5086;DHT22;4715;51.660;7.082;2023-04-25T02:59:26;6.80;99.90
5086;DHT22;4715;51.660;7.082;2023-04-25T03:01:51;6.80;99.90
5086;DHT22;4715;51.660;7.082;2023-04-25T03:04:12;6.80;99.90
5086;DHT22;4715;51.660;7.082;2023-04-25T03:06:34;6.80;99.90
5086;DHT22;4715;51.660;7.082;2023-04-25T03:08:56;6.80;99.90
5086;DHT22;4715;51.660;7.082;2023-04-25T03:11:18;6.80;99.90
5086;DHT22;4715;51.660;7.082;2023-04-25T03:13:42;6.90;99.90
5086;DHT22;4715;51.660;7.082;2023-04-25T03:16:07;6.90;99.90
5086;DHT22;4715;51.660;7.082;2023-04-25T03:18:30;6.80;99.90
5086;DHT22;4715;51.660;7.082;2023-04-25T03:20:52;6.80;99.90
5086;DHT22;4715;51.660;7.082;2023-04-25T03:23:14;6.80;99.90
5086;DHT22;4715;51.660;7.082;2023-04-25T03:25:37;6.80;99.90
5086;DHT22;4715;51.660;7.082;2023-04-25T03:27:59;6.90;99.90
5086;DHT22;4715;51.660;7.082;2023-04-25T03:30:23;6.90;99.90
5086;DHT22;4715;51.660;7.082;2023-04-25T03:32:45;6.90;99.90
5086;DHT22;4715;51.660;7.082;2023-04-25T03:35:08;6.80;99.90
5086;DHT22;4715;51.660;7.082;2023-04-25T03:37:31;6.70;99.90
5086;DHT22;4715;51.660;7.082;2023-04-25T03:39:53;6.70;99.90
5086;DHT22;4715;51.660;7.082;2023-04-25T03:42:15;6.50;99.90
5086;DHT22;4715;51.660;7.082;2023-04-25T03:44:38;6.40;99.90
5086;DHT22;4715;51.660;7.082;2023-04-25T03:47:00;6.40;99.90
5086;DHT22;4715;51.660;7.082;2023-04-25T03:49:22;6.30;99.90
5086;DHT22;4715;51.660;7.082;2023-04-25T03:51:45;6.20;99.90
5086;DHT22;4715;51.660;7.082;2023-04-25T03:54:07;6.20;99.90
5086;DHT22;4715;51.660;7.082;2023-04-25T03:56:29;6.10;99.90
5086;DHT22;4715;51.660;7.082;2023-04-25T03:58:51;6.10;99.90
5086;DHT22;4715;51.660;7.082;2023-04-25T04:01:13;6.10;99.90
5086;DHT22;4715;51.660;7.082;2023-04-25T04:03:34;6.10;99.90
5086;DHT22;4715;51.660;7.082;2023-04-25T04:05:57;6.10;99.90
5086;DHT22;4715;51.660;7.082;2023-04-25T04:08:21;6.10;99.90
5086;DHT22;4715;51.660;7.082;2023-04-25T04:10:43;6.10;99.90
5086;DHT22;4715;51.660;7.082;2023-04-25T04:13:05;6.10;99.90
5086;DHT22;4715;51.660;7.082;2023-04-25T04:15:26;6.00;99.90
5086;DHT22;4715;51.660;7.082;2023-04-25T04:17:48;6.10;99.90
5086;DHT22;4715;51.660;7.082;2023-04-25T04:20:11;6.10;99.90
5086;DHT22;4715;51.660;7.082;2023-04-25T04:22:32;6.10;99.90
5086;DHT22;4715;51.660;7.082;2023-04-25T04:24:56;6.10;99.90
5086;DHT22;4715;51.660;7.082;2023-04-25T04:27:18;6.10;99.90
5086;DHT22;4715;51.660;7.082;2023-04-25T04:29:40;6.10;99.90
5086;DHT22;4715;51.660;7.082;2023-04-25T04:32:02;6.10;99.90
5086;DHT22;4715;51.660;7.082;2023-04-25T04:34:25;6.00;99.90
5086;DHT22;4715;51.660;7.082;2023-04-25T04:36:47;6.00;99.90
5086;DHT22;4715;51.660;7.082;2023-04-25T04:39:09;6.00;99.90
5086;DHT22;4715;51.660;7.082;2023-04-25T04:41:33;6.00;99.90
5086;DHT22;4715;51.660;7.082;2023-04-25T04:43:55;6.00;99.90
5086;DHT22;4715;51.660;7.082;2023-04-25T04:46:17;6.10;99.90
5086;DHT22;4715;51.660;7.082;2023-04-25T04:48:39;6.20;99.90
5086;DHT22;4715;51.660;7.082;2023-04-25T04:51:01;6.30;99.90
5086;DHT22;4715;51.660;7.082;2023-04-25T04:53:22;6.30;99.90
5086;DHT22;4715;51.660;7.082;2023-04-25T04:55:44;6.30;99.90
5086;DHT22;4715;51.660;7.082;2023-04-25T04:58:08;6.30;99.90
5086;DHT22;4715;51.660;7.082;2023-04-25T05:00:30;6.20;99.90
5086;DHT22;4715;51.660;7.082;2023-04-25T05:02:52;6.20;99.90
5086;DHT22;4715;51.660;7.082;2023-04-25T05:05:14;6.30;99.90
5086;DHT22;4715;51.660;7.082;2023-04-25T05:07:36;6.30;99.90
5086;DHT22;4715;51.660;7.082;2023-04-25T05:09:59;6.30;99.90
5086;DHT22;4715;51.660;7.082;2023-04-25T05:12:21;6.30;99.90
5086;DHT22;4715;51.660;7.082;2023-04-25T05:14:44;6.30;99.90
5086;DHT22;4715;51.660;7.082;2023-04-25T05:17:06;6.30;99.90
5086;DHT22;4715;51.660;7.082;2023-04-25T05:19:30;6.30;99.90
5086;DHT22;4715;51.660;7.082;2023-04-25T05:21:51;6.40;99.90
5086;DHT22;4715;51.660;7.082;2023-04-25T05:24:13;6.40;99.90
5086;DHT22;4715;51.660;7.082;2023-04-25T05:26:35;6.40;99.90
5086;DHT22;4715;51.660;7.082;2023-04-25T05:28:57;6.40;99.90
5086;DHT22;4715;51.660;7.082;2023-04-25T05:31:20;6.50;99.90
5086;DHT22;4715;51.660;7.082;2023-04-25T05:33:42;6.50;99.90
5086;DHT22;4715;51.660;7.082;2023-04-25T05:36:04;6.50;99.90
5086;DHT22;4715;51.660;7.082;2023-04-25T05:38:26;6.60;99.90
5086;DHT22;4715;51.660;7.082;2023-04-25T05:40:48;6.60;99.90
5086;DHT22;4715;51.660;7.082;2023-04-25T05:43:10;6.60;99.90
5086;DHT22;4715;51.660;7.082;2023-04-25T05:45:32;6.70;99.90
5086;DHT22;4715;51.660;7.082;2023-04-25T05:47:55;6.60;99.90
5086;DHT22;4715;51.660;7.082;2023-04-25T05:50:17;6.70;99.90
5086;DHT22;4715;51.660;7.082;2023-04-25T05:52:42;6.70;99.90
5086;DHT22;4715;51.660;7.082;2023-04-25T05:55:05;6.70;99.90
5086;DHT22;4715;51.660;7.082;2023-04-25T05:57:28;6.70;99.90
5086;DHT22;4715;51.660;7.082;2023-04-25T05:59:50;6.70;99.90
5086;DHT22;4715;51.660;7.082;2023-04-25T06:02:12;6.80;99.90
5086;DHT22;4715;51.660;7.082;2023-04-25T06:04:35;6.80;99.90
5086;DHT22;4715;51.660;7.082;2023-04-25T06:06:57;6.80;99.90
5086;DHT22;4715;51.660;7.082;2023-04-25T06:09:19;7.00;99.90
5086;DHT22;4715;51.660;7.082;2023-04-25T06:11:41;7.00;99.90
5086;DHT22;4715;51.660;7.082;2023-04-25T06:14:03;7.10;99.90
5086;DHT22;4715;51.660;7.082;2023-04-25T06:16:25;7.10;99.90
5086;DHT22;4715;51.660;7.082;2023-04-25T06:18:49;7.10;99.90
5086;DHT22;4715;51.660;7.082;2023-04-25T06:21:12;7.20;99.90
5086;DHT22;4715;51.660;7.082;2023-04-25T06:23:34;7.20;99.90
5086;DHT22;4715;51.660;7.082;2023-04-25T06:25:56;7.30;99.90
5086;DHT22;4715;51.660;7.082;2023-04-25T06:28:18;7.20;99.90
5086;DHT22;4715;51.660;7.082;2023-04-25T06:30:42;7.20;99.90
5086;DHT22;4715;51.660;7.082;2023-04-25T06:33:04;7.30;99.90
5086;DHT22;4715;51.660;7.082;2023-04-25T06:35:26;7.20;99.90
5086;DHT22;4715;51.660;7.082;2023-04-25T06:37:49;7.20;99.90
5086;DHT22;4715;51.660;7.082;2023-04-25T06:40:11;7.20;99.90
5086;DHT22;4715;51.660;7.082;2023-04-25T06:42:33;7.20;99.90
5086;DHT22;4715;51.660;7.082;2023-04-25T06:44:55;7.10;99.90
5086;DHT22;4715;51.660;7.082;2023-04-25T06:47:17;7.10;99.90
5086;DHT22;4715;51.660;7.082;2023-04-25T06:49:39;7.10;99.90
5086;DHT22;4715;51.660;7.082;2023-04-25T06:52:01;7.10;99.90
5086;DHT22;4715;51.660;7.082;2023-04-25T06:54:24;7.20;99.90
5086;DHT22;4715;51.660;7.082;2023-04-25T06:56:47;7.20;99.90
5086;DHT22;4715;51.660;7.082;2023-04-25T06:59:10;7.20;99.90
5086;DHT22;4715;51.660;7.082;2023-04-25T07:01:32;7.30;99.90
5086;DHT22;4715;51.660;7.082;2023-04-25T07:03:55;7.40;99.90
5086;DHT22;4715;51.660;7.082;2023-04-25T07:06:17;7.50;99.90
5086;DHT22;4715;51.660;7.082;2023-04-25T07:08:39;7.60;99.90
5086;DHT22;4715;51.660;7.082;2023-04-25T07:11:05;7.70;99.90
5086;DHT22;4715;51.660;7.082;2023-04-25T07:13:27;7.80;99.90
5086;DHT22;4715;51.660;7.082;2023-04-25T07:16:17;7.70;99.90
5086;DHT22;4715;51.660;7.082;2023-04-25T07:18:39;7.70;99.90
5086;DHT22;4715;51.660;7.082;2023-04-25T07:21:01;7.60;99.90
5086;DHT22;4715;51.660;7.082;2023-04-25T07:23:23;7.60;99.90
5086;DHT22;4715;51.660;7.082;2023-04-25T07:25:45;7.70;99.90
5086;DHT22;4715;51.660;7.082;2023-04-25T07:28:15;7.70;99.90
5086;DHT22;4715;51.660;7.082;2023-04-25T07:30:45;7.80;99.90
5086;DHT22;4715;51.660;7.082;2023-04-25T07:33:07;7.90;99.90
5086;DHT22;4715;51.660;7.082;2023-04-25T07:35:29;8.00;99.90
5086;DHT22;4715;51.660;7.082;2023-04-25T07:37:51;8.10;99.90
5086;DHT22;4715;51.660;7.082;2023-04-25T07:40:13;8.10;99.90
5086;DHT22;4715;51.660;7.082;2023-04-25T07:42:36;8.10;99.90
5086;DHT22;4715;51.660;7.082;2023-04-25T07:45:06;8.20;99.90
5086;DHT22;4715;51.660;7.082;2023-04-25T07:47:29;8.30;99.90
5086;DHT22;4715;51.660;7.082;2023-04-25T07:50:08;8.40;99.90
5086;DHT22;4715;51.660;7.082;2023-04-25T07:52:31;8.50;99.90
5086;DHT22;4715;51.660;7.082;2023-04-25T07:54:55;8.50;99.90
5086;DHT22;4715;51.660;7.082;2023-04-25T07:57:20;8.50;99.90
5086;DHT22;4715;51.660;7.082;2023-04-25T07:59:44;8.50;99.90
5086;DHT22;4715;51.660;7.082;2023-04-25T08:02:16;8.40;99.90
5086;DHT22;4715;51.660;7.082;2023-04-25T08:04:50;8.50;99.90
5086;DHT22;4715;51.660;7.082;2023-04-25T08:07:15;8.70;99.90
5086;DHT22;4715;51.660;7.082;2023-04-25T08:09:37;8.80;99.90
5086;DHT22;4715;51.660;7.082;2023-04-25T08:11:59;9.00;99.90
5086;DHT22;4715;51.660;7.082;2023-04-25T08:14:24;9.00;99.90
5086;DHT22;4715;51.660;7.082;2023-04-25T08:16:47;9.10;99.90
5086;DHT22;4715;51.660;7.082;2023-04-25T08:19:11;9.20;99.90
5086;DHT22;4715;51.660;7.082;2023-04-25T08:21:32;9.30;99.90
5086;DHT22;4715;51.660;7.082;2023-04-25T08:23:54;9.40;99.90
5086;DHT22;4715;51.660;7.082;2023-04-25T08:26:17;9.40;99.90
5086;DHT22;4715;51.660;7.082;2023-04-25T08:28:39;9.40;99.90
5086;DHT22;4715;51.660;7.082;2023-04-25T08:31:01;9.50;99.90
5086;DHT22;4715;51.660;7.082;2023-04-25T08:33:23;9.60;99.90
5086;DHT22;4715;51.660;7.082;2023-04-25T08:35:46;9.50;99.90
5086;DHT22;4715;51.660;7.082;2023-04-25T08:38:08;9.40;99.90
5086;DHT22;4715;51.660;7.082;2023-04-25T08:40:35;9.30;99.90
5086;DHT22;4715;51.660;7.082;2023-04-25T08:42:59;9.30;99.90
5086;DHT22;4715;51.660;7.082;2023-04-25T08:45:25;9.30;99.90
5086;DHT22;4715;51.660;7.082;2023-04-25T08:47:47;9.40;99.90
5086;DHT22;4715;51.660;7.082;2023-04-25T08:50:11;9.50;99.90
5086;DHT22;4715;51.660;7.082;2023-04-25T08:52:39;9.50;99.90
5086;DHT22;4715;51.660;7.082;2023-04-25T08:55:06;9.50;99.90
5086;DHT22;4715;51.660;7.082;2023-04-25T08:57:29;9.40;99.90
5086;DHT22;4715;51.660;7.082;2023-04-25T08:59:57;9.50;99.90
5086;DHT22;4715;51.660;7.082;2023-04-25T09:02:19;9.50;99.90
5086;DHT22;4715;51.660;7.082;2023-04-25T09:04:42;9.50;99.90
5086;DHT22;4715;51.660;7.082;2023-04-25T09:07:05;9.60;99.90
5086;DHT22;4715;51.660;7.082;2023-04-25T09:09:28;9.80;99.90
5086;DHT22;4715;51.660;7.082;2023-04-25T09:11:54;9.90;99.90
5086;DHT22;4715;51.660;7.082;2023-04-25T09:14:23;10.10;99.90
5086;DHT22;4715;51.660;7.082;2023-04-25T09:16:59;10.10;99.90
5086;DHT22;4715;51.660;7.082;2023-04-25T09:19:22;10.20;99.90
5086;DHT22;4715;51.660;7.082;2023-04-25T09:21:48;10.30;99.90
5086;DHT22;4715;51.660;7.082;2023-04-25T09:24:11;10.40;99.90
5086;DHT22;4715;51.660;7.082;2023-04-25T09:26:34;10.40;99.90
5086;DHT22;4715;51.660;7.082;2023-04-25T09:29:05;10.60;99.90
5086;DHT22;4715;51.660;7.082;2023-04-25T09:31:30;10.70;99.90
5086;DHT22;4715;51.660;7.082;2023-04-25T09:33:59;10.70;99.90
5086;DHT22;4715;51.660;7.082;2023-04-25T09:36:26;10.70;99.90
5086;DHT22;4715;51.660;7.082;2023-04-25T09:38:48;10.80;99.90
5086;DHT22;4715;51.660;7.082;2023-04-25T09:41:11;11.00;99.90
5086;DHT22;4715;51.660;7.082;2023-04-25T09:43:35;11.10;99.90
5086;DHT22;4715;51.660;7.082;2023-04-25T09:45:57;11.30;99.90
5086;DHT22;4715;51.660;7.082;2023-04-25T09:48:21;11.50;99.90
5086;DHT22;4715;51.660;7.082;2023-04-25T09:50:43;11.70;99.90
5086;DHT22;4715;51.660;7.082;2023-04-25T09:53:07;11.80;99.90
5086;DHT22;4715;51.660;7.082;2023-04-25T09:55:29;11.70;99.90
5086;DHT22;4715;51.660;7.082;2023-04-25T09:57:53;11.60;99.90
5086;DHT22;4715;51.660;7.082;2023-04-25T10:00:19;11.60;99.90
5086;DHT22;4715;51.660;7.082;2023-04-25T10:02:42;11.50;99.90
5086;DHT22;4715;51.660;7.082;2023-04-25T10:05:08;11.40;99.90
5086;DHT22;4715;51.660;7.082;2023-04-25T10:07:34;11.20;99.90
5086;DHT22;4715;51.660;7.082;2023-04-25T10:10:00;11.10;99.90
5086;DHT22;4715;51.660;7.082;2023-04-25T10:12:23;10.90;99.90
5086;DHT22;4715;51.660;7.082;2023-04-25T10:14:46;10.70;99.90
5086;DHT22;4715;51.660;7.082;2023-04-25T10:17:10;10.50;99.90
5086;DHT22;4715;51.660;7.082;2023-04-25T10:19:33;10.30;99.90
5086;DHT22;4715;51.660;7.082;2023-04-25T10:22:02;10.10;99.90
5086;DHT22;4715;51.660;7.082;2023-04-25T10:24:25;10.00;99.90
5086;DHT22;4715;51.660;7.082;2023-04-25T10:27:00;9.80;99.90
5086;DHT22;4715;51.660;7.082;2023-04-25T10:29:24;9.70;99.90
5086;DHT22;4715;51.660;7.082;2023-04-25T10:31:46;9.50;99.90
5086;DHT22;4715;51.660;7.082;2023-04-25T10:34:10;9.50;99.90
5086;DHT22;4715;51.660;7.082;2023-04-25T10:36:32;9.40;99.90
5086;DHT22;4715;51.660;7.082;2023-04-25T10:38:55;9.30;99.90
5086;DHT22;4715;51.660;7.082;2023-04-25T10:41:20;9.30;99.90
5086;DHT22;4715;51.660;7.082;2023-04-25T10:43:44;9.30;99.90
5086;DHT22;4715;51.660;7.082;2023-04-25T10:46:16;9.30;99.90
5086;DHT22;4715;51.660;7.082;2023-04-25T10:48:45;9.30;99.90
5086;DHT22;4715;51.660;7.082;2023-04-25T10:51:09;9.40;99.90
5086;DHT22;4715;51.660;7.082;2023-04-25T10:53:33;9.40;99.90
5086;DHT22;4715;51.660;7.082;2023-04-25T10:55:55;9.50;99.90
5086;DHT22;4715;51.660;7.082;2023-04-25T10:58:21;9.70;99.90
5086;DHT22;4715;51.660;7.082;2023-04-25T11:00:44;9.90;99.90
5086;DHT22;4715;51.660;7.082;2023-04-25T11:03:06;9.80;99.90
5086;DHT22;4715;51.660;7.082;2023-04-25T11:05:32;9.90;99.90
5086;DHT22;4715;51.660;7.082;2023-04-25T11:07:58;10.00;99.90
5086;DHT22;4715;51.660;7.082;2023-04-25T11:10:25;10.10;99.90
5086;DHT22;4715;51.660;7.082;2023-04-25T11:12:48;10.30;99.90
5086;DHT22;4715;51.660;7.082;2023-04-25T11:15:10;10.20;99.90
5086;DHT22;4715;51.660;7.082;2023-04-25T11:17:33;10.20;99.90
5086;DHT22;4715;51.660;7.082;2023-04-25T11:19:55;10.30;99.90
5086;DHT22;4715;51.660;7.082;2023-04-25T11:22:17;10.30;99.90
5086;DHT22;4715;51.660;7.082;2023-04-25T11:24:41;10.50;99.90
5086;DHT22;4715;51.660;7.082;2023-04-25T11:27:04;10.60;99.90
5086;DHT22;4715;51.660;7.082;2023-04-25T11:29:27;10.80;99.90
5086;DHT22;4715;51.660;7.082;2023-04-25T11:31:50;10.90;99.90
5086;DHT22;4715;51.660;7.082;2023-04-25T11:34:17;10.90;99.90
5086;DHT22;4715;51.660;7.082;2023-04-25T11:36:38;11.10;99.90
5086;DHT22;4715;51.660;7.082;2023-04-25T11:39:00;11.20;99.90
5086;DHT22;4715;51.660;7.082;2023-04-25T11:41:25;11.40;99.90
5086;DHT22;4715;51.660;7.082;2023-04-25T11:43:47;11.60;99.90
5086;DHT22;4715;51.660;7.082;2023-04-25T11:46:10;11.80;99.90
5086;DHT22;4715;51.660;7.082;2023-04-25T11:48:37;12.10;99.90
5086;DHT22;4715;51.660;7.082;2023-04-25T11:51:00;12.30;99.90
5086;DHT22;4715;51.660;7.082;2023-04-25T11:53:22;12.50;99.90
5086;DHT22;4715;51.660;7.082;2023-04-25T11:55:45;12.50;99.90
5086;DHT22;4715;51.660;7.082;2023-04-25T11:58:09;12.50;99.90
5086;DHT22;4715;51.660;7.082;2023-04-25T12:00:34;12.30;99.90
5086;DHT22;4715;51.660;7.082;2023-04-25T12:02:57;12.30;99.90
5086;DHT22;4715;51.660;7.082;2023-04-25T12:05:19;12.40;99.90
5086;DHT22;4715;51.660;7.082;2023-04-25T12:07:41;12.30;99.90
5086;DHT22;4715;51.660;7.082;2023-04-25T12:10:07;12.30;99.90
5086;DHT22;4715;51.660;7.082;2023-04-25T12:12:33;12.20;99.90
5086;DHT22;4715;51.660;7.082;2023-04-25T12:14:56;12.10;99.90
5086;DHT22;4715;51.660;7.082;2023-04-25T12:17:22;11.90;99.90
5086;DHT22;4715;51.660;7.082;2023-04-25T12:19:47;11.80;99.90
5086;DHT22;4715;51.660;7.082;2023-04-25T12:22:19;11.60;99.90
5086;DHT22;4715;51.660;7.082;2023-04-25T12:24:45;11.50;99.90
5086;DHT22;4715;51.660;7.082;2023-04-25T12:27:07;11.30;99.90
5086;DHT22;4715;51.660;7.082;2023-04-25T12:29:31;11.30;99.90
5086;DHT22;4715;51.660;7.082;2023-04-25T12:31:56;11.30;99.90
5086;DHT22;4715;51.660;7.082;2023-04-25T12:34:18;11.20;99.90
5086;DHT22;4715;51.660;7.082;2023-04-25T12:36:40;11.20;99.90
5086;DHT22;4715;51.660;7.082;2023-04-25T12:39:02;11.20;99.90
5086;DHT22;4715;51.660;7.082;2023-04-25T12:41:24;11.20;99.90
5086;DHT22;4715;51.660;7.082;2023-04-25T12:43:46;11.30;99.90
5086;DHT22;4715;51.660;7.082;2023-04-25T12:46:08;11.50;99.90
5086;DHT22;4715;51.660;7.082;2023-04-25T12:48:32;11.70;99.90
5086;DHT22;4715;51.660;7.082;2023-04-25T12:50:53;11.90;99.90
5086;DHT22;4715;51.660;7.082;2023-04-25T12:53:17;12.10;99.90
5086;DHT22;4715;51.660;7.082;2023-04-25T12:55:40;12.30;99.90
5086;DHT22;4715;51.660;7.082;2023-04-25T12:58:02;12.60;99.90
5086;DHT22;4715;51.660;7.082;2023-04-25T13:00:24;12.70;99.90
5086;DHT22;4715;51.660;7.082;2023-04-25T13:02:46;12.60;99.90
5086;DHT22;4715;51.660;7.082;2023-04-25T13:05:10;12.40;99.90
5086;DHT22;4715;51.660;7.082;2023-04-25T13:07:32;12.20;99.90
5086;DHT22;4715;51.660;7.082;2023-04-25T13:09:54;12.10;99.90
5086;DHT22;4715;51.660;7.082;2023-04-25T13:12:23;11.90;99.90
5086;DHT22;4715;51.660;7.082;2023-04-25T13:14:45;11.60;99.90
5086;DHT22;4715;51.660;7.082;2023-04-25T13:17:07;11.40;99.90
5086;DHT22;4715;51.660;7.082;2023-04-25T13:19:29;11.30;99.90
5086;DHT22;4715;51.660;7.082;2023-04-25T13:21:52;11.40;99.90
5086;DHT22;4715;51.660;7.082;2023-04-25T13:24:15;11.40;99.90
5086;DHT22;4715;51.660;7.082;2023-04-25T13:26:37;11.40;99.90
5086;DHT22;4715;51.660;7.082;2023-04-25T13:28:59;11.40;99.90
5086;DHT22;4715;51.660;7.082;2023-04-25T13:31:24;11.40;99.90
5086;DHT22;4715;51.660;7.082;2023-04-25T13:33:52;11.30;99.90
5086;DHT22;4715;51.660;7.082;2023-04-25T13:36:14;11.40;99.90
5086;DHT22;4715;51.660;7.082;2023-04-25T13:38:43;11.50;99.90
5086;DHT22;4715;51.660;7.082;2023-04-25T13:41:09;11.80;99.90
5086;DHT22;4715;51.660;7.082;2023-04-25T13:43:34;12.10;99.90
5086;DHT22;4715;51.660;7.082;2023-04-25T13:45:59;12.40;99.90
5086;DHT22;4715;51.660;7.082;2023-04-25T13:48:23;12.60;99.90
5086;DHT22;4715;51.660;7.082;2023-04-25T13:50:46;12.70;99.90
5086;DHT22;4715;51.660;7.082;2023-04-25T13:53:10;12.90;99.90
5086;DHT22;4715;51.660;7.082;2023-04-25T13:55:35;13.20;99.90
5086;DHT22;4715;51.660;7.082;2023-04-25T13:58:04;13.30;99.90
5086;DHT22;4715;51.660;7.082;2023-04-25T14:00:29;13.50;99.90
5086;DHT22;4715;51.660;7.082;2023-04-25T14:02:51;13.50;99.90
5086;DHT22;4715;51.660;7.082;2023-04-25T14:05:14;13.60;99.90
5086;DHT22;4715;51.660;7.082;2023-04-25T14:07:42;13.50;99.90
5086;DHT22;4715;51.660;7.082;2023-04-25T14:10:18;13.70;99.90
5086;DHT22;4715;51.660;7.082;2023-04-25T14:12:41;14.00;99.90
5086;DHT22;4715;51.660;7.082;2023-04-25T14:15:05;14.30;99.90
5086;DHT22;4715;51.660;7.082;2023-04-25T14:17:33;14.60;99.90
5086;DHT22;4715;51.660;7.082;2023-04-25T14:19:55;14.90;99.90
5086;DHT22;4715;51.660;7.082;2023-04-25T14:22:17;15.10;99.90
5086;DHT22;4715;51.660;7.082;2023-04-25T14:24:40;15.10;99.90
5086;DHT22;4715;51.660;7.082;2023-04-25T14:27:04;14.70;99.90
5086;DHT22;4715;51.660;7.082;2023-04-25T14:29:27;14.50;99.90
5086;DHT22;4715;51.660;7.082;2023-04-25T14:31:50;14.40;99.90
5086;DHT22;4715;51.660;7.082;2023-04-25T14:34:22;14.30;99.90
5086;DHT22;4715;51.660;7.082;2023-04-25T14:36:43;14.30;99.90
5086;DHT22;4715;51.660;7.082;2023-04-25T14:39:05;14.20;99.90
5086;DHT22;4715;51.660;7.082;2023-04-25T14:41:27;14.00;99.90
5086;DHT22;4715;51.660;7.082;2023-04-25T14:43:52;13.80;99.90
5086;DHT22;4715;51.660;7.082;2023-04-25T14:46:21;13.50;99.90
5086;DHT22;4715;51.660;7.082;2023-04-25T14:48:52;13.30;99.90
5086;DHT22;4715;51.660;7.082;2023-04-25T14:51:37;13.00;99.90
5086;DHT22;4715;51.660;7.082;2023-04-25T14:53:59;12.70;99.90
5086;DHT22;4715;51.660;7.082;2023-04-25T14:56:20;12.40;99.90
5086;DHT22;4715;51.660;7.082;2023-04-25T14:58:45;12.30;99.90
5086;DHT22;4715;51.660;7.082;2023-04-25T15:01:06;12.00;99.90
5086;DHT22;4715;51.660;7.082;2023-04-25T15:03:30;11.90;99.90
5086;DHT22;4715;51.660;7.082;2023-04-25T15:05:53;12.00;99.90
5086;DHT22;4715;51.660;7.082;2023-04-25T15:08:16;12.20;99.90
5086;DHT22;4715;51.660;7.082;2023-04-25T15:10:39;12.60;99.90
5086;DHT22;4715;51.660;7.082;2023-04-25T15:13:03;13.10;99.90
5086;DHT22;4715;51.660;7.082;2023-04-25T15:15:25;13.80;99.90
5086;DHT22;4715;51.660;7.082;2023-04-25T15:17:47;14.50;99.90
5086;DHT22;4715;51.660;7.082;2023-04-25T15:20:11;14.90;99.90
5086;DHT22;4715;51.660;7.082;2023-04-25T15:22:34;15.10;99.90
5086;DHT22;4715;51.660;7.082;2023-04-25T15:24:58;15.30;99.90
5086;DHT22;4715;51.660;7.082;2023-04-25T15:27:20;15.50;99.90
5086;DHT22;4715;51.660;7.082;2023-04-25T15:29:44;15.40;99.90
5086;DHT22;4715;51.660;7.082;2023-04-25T15:32:07;15.10;99.90
5086;DHT22;4715;51.660;7.082;2023-04-25T15:34:32;14.70;99.90
5086;DHT22;4715;51.660;7.082;2023-04-25T15:36:55;14.40;99.90
5086;DHT22;4715;51.660;7.082;2023-04-25T15:39:19;14.00;99.90
5086;DHT22;4715;51.660;7.082;2023-04-25T15:41:41;13.70;99.90
5086;DHT22;4715;51.660;7.082;2023-04-25T15:44:03;13.40;99.90
5086;DHT22;4715;51.660;7.082;2023-04-25T15:46:24;13.10;99.90